sensor_id;sensor_type;location;lat;lon;timestamp;P1;durP1;ratioP1;P2;durP2;ratioP2
7985;SDS011;4038;42.612;23.066;2023-04-01T00:00:21;23.77;;;21.20;;
7985;SDS011;4038;42.612;23.066;2023-04-01T00:02:47;25.65;;;21.95;;
7985;SDS011;4038;42.612;23.066;2023-04-01T00:05:12;24.58;;;22.10;;
7985;SDS011;4038;42.612;23.066;2023-04-01T00:07:38;22.85;;;20.85;;
7985;SDS011;4038;42.612;23.066;2023-04-01T00:10:05;22.95;;;20.60;;
7985;SDS011;4038;42.612;23.066;2023-04-01T00:12:30;27.30;;;21.38;;
7985;SDS011;4038;42.612;23.066;2023-04-01T00:14:55;23.48;;;21.60;;
7985;SDS011;4038;42.612;23.066;2023-04-01T00:17:21;21.70;;;19.70;;
7985;SDS011;4038;42.612;23.066;2023-04-01T00:19:46;23.30;;;20.90;;
7985;SDS011;4038;42.612;23.066;2023-04-01T00:22:11;25.58;;;20.70;;
7985;SDS011;4038;42.612;23.066;2023-04-01T00:24:37;29.73;;;25.63;;
7985;SDS011;4038;42.612;23.066;2023-04-01T00:27:02;30.15;;;22.40;;
7985;SDS011;4038;42.612;23.066;2023-04-01T00:29:28;36.85;;;22.30;;
7985;SDS011;4038;42.612;23.066;2023-04-01T00:31:55;29.55;;;20.80;;
7985;SDS011;4038;42.612;23.066;2023-04-01T00:34:21;29.42;;;21.83;;
7985;SDS011;4038;42.612;23.066;2023-04-01T00:36:46;21.85;;;19.73;;
7985;SDS011;4038;42.612;23.066;2023-04-01T00:39:11;21.08;;;19.10;;
7985;SDS011;4038;42.612;23.066;2023-04-01T00:41:37;23.23;;;19.55;;
7985;SDS011;4038;42.612;23.066;2023-04-01T00:44:16;22.83;;;19.23;;
7985;SDS011;4038;42.612;23.066;2023-04-01T00:46:43;24.30;;;20.20;;
7985;SDS011;4038;42.612;23.066;2023-04-01T00:49:08;29.73;;;20.67;;
7985;SDS011;4038;42.612;23.066;2023-04-01T00:51:34;27.40;;;20.70;;
7985;SDS011;4038;42.612;23.066;2023-04-01T00:54:01;37.92;;;22.05;;
7985;SDS011;4038;42.612;23.066;2023-04-01T00:56:35;39.28;;;23.83;;
7985;SDS011;4038;42.612;23.066;2023-04-01T00:59:03;47.25;;;23.67;;
7985;SDS011;4038;42.612;23.066;2023-04-01T01:01:29;31.30;;;23.67;;
7985;SDS011;4038;42.612;23.066;2023-04-01T01:03:56;30.88;;;22.88;;
7985;SDS011;4038;42.612;23.066;2023-04-01T01:11:29;21.00;;;19.40;;
7985;SDS011;4038;42.612;23.066;2023-04-01T01:13:58;21.63;;;19.83;;
7985;SDS011;4038;42.612;23.066;2023-04-01T01:16:29;20.90;;;19.40;;
7985;SDS011;4038;42.612;23.066;2023-04-01T01:19:00;21.33;;;19.80;;
7985;SDS011;4038;42.612;23.066;2023-04-01T01:21:32;21.02;;;19.35;;
7985;SDS011;4038;42.612;23.066;2023-04-01T01:37:01;21.70;;;20.27;;
7985;SDS011;4038;42.612;23.066;2023-04-01T01:39:30;20.67;;;19.38;;
7985;SDS011;4038;42.612;23.066;2023-04-01T01:41:57;21.67;;;20.08;;
7985;SDS011;4038;42.612;23.066;2023-04-01T01:44:23;20.52;;;19.13;;
7985;SDS011;4038;42.612;23.066;2023-04-01T01:46:49;21.25;;;19.73;;
7985;SDS011;4038;42.612;23.066;2023-04-01T01:49:14;21.15;;;19.38;;
7985;SDS011;4038;42.612;23.066;2023-04-01T01:51:40;20.17;;;18.63;;
7985;SDS011;4038;42.612;23.066;2023-04-01T01:54:11;21.02;;;19.35;;
7985;SDS011;4038;42.612;23.066;2023-04-01T01:56:36;22.08;;;20.20;;
7985;SDS011;4038;42.612;23.066;2023-04-01T01:59:03;20.30;;;18.73;;
7985;SDS011;4038;42.612;23.066;2023-04-01T02:01:29;20.90;;;19.48;;
7985;SDS011;4038;42.612;23.066;2023-04-01T02:03:56;21.02;;;19.17;;
7985;SDS011;4038;42.612;23.066;2023-04-01T02:06:24;21.20;;;19.55;;
7985;SDS011;4038;42.612;23.066;2023-04-01T02:08:51;20.95;;;19.10;;
7985;SDS011;4038;42.612;23.066;2023-04-01T02:11:19;20.70;;;19.00;;
7985;SDS011;4038;42.612;23.066;2023-04-01T02:16:13;19.67;;;18.17;;
7985;SDS011;4038;42.612;23.066;2023-04-01T02:18:40;19.40;;;18.00;;
7985;SDS011;4038;42.612;23.066;2023-04-01T02:21:06;25.80;;;23.45;;
7985;SDS011;4038;42.612;23.066;2023-04-01T02:23:35;20.45;;;18.95;;
7985;SDS011;4038;42.612;23.066;2023-04-01T02:26:02;19.67;;;18.20;;
7985;SDS011;4038;42.612;23.066;2023-04-01T02:28:29;19.67;;;18.13;;
7985;SDS011;4038;42.612;23.066;2023-04-01T02:30:55;21.05;;;19.45;;
7985;SDS011;4038;42.612;23.066;2023-04-01T02:33:21;20.73;;;19.23;;
7985;SDS011;4038;42.612;23.066;2023-04-01T02:35:46;20.20;;;18.52;;
7985;SDS011;4038;42.612;23.066;2023-04-01T02:38:11;20.35;;;18.85;;
7985;SDS011;4038;42.612;23.066;2023-04-01T02:40:44;21.00;;;19.40;;
7985;SDS011;4038;42.612;23.066;2023-04-01T02:43:09;21.17;;;19.52;;
7985;SDS011;4038;42.612;23.066;2023-04-01T02:45:35;20.35;;;18.88;;
7985;SDS011;4038;42.612;23.066;2023-04-01T02:48:00;20.92;;;19.23;;
7985;SDS011;4038;42.612;23.066;2023-04-01T02:50:25;20.88;;;19.58;;
7985;SDS011;4038;42.612;23.066;2023-04-01T02:52:51;20.65;;;19.17;;
7985;SDS011;4038;42.612;23.066;2023-04-01T02:55:16;20.92;;;19.13;;
7985;SDS011;4038;42.612;23.066;2023-04-01T02:57:41;19.92;;;18.42;;
7985;SDS011;4038;42.612;23.066;2023-04-01T03:00:06;20.65;;;18.95;;
7985;SDS011;4038;42.612;23.066;2023-04-01T03:02:36;20.63;;;19.13;;
7985;SDS011;4038;42.612;23.066;2023-04-01T03:05:01;20.67;;;19.35;;
7985;SDS011;4038;42.612;23.066;2023-04-01T03:07:26;26.80;;;24.70;;
7985;SDS011;4038;42.612;23.066;2023-04-01T03:09:52;26.05;;;23.75;;
7985;SDS011;4038;42.612;23.066;2023-04-01T03:12:17;24.75;;;22.92;;
7985;SDS011;4038;42.612;23.066;2023-04-01T03:14:42;24.25;;;22.35;;
7985;SDS011;4038;42.612;23.066;2023-04-01T03:17:07;23.15;;;21.55;;
7985;SDS011;4038;42.612;23.066;2023-04-01T03:19:32;20.55;;;19.15;;
7985;SDS011;4038;42.612;23.066;2023-04-01T03:21:58;21.02;;;19.42;;
7985;SDS011;4038;42.612;23.066;2023-04-01T03:24:23;21.17;;;19.48;;
7985;SDS011;4038;42.612;23.066;2023-04-01T03:26:48;20.83;;;18.92;;
7985;SDS011;4038;42.612;23.066;2023-04-01T03:29:14;20.80;;;19.40;;
7985;SDS011;4038;42.612;23.066;2023-04-01T03:31:40;20.63;;;19.13;;
7985;SDS011;4038;42.612;23.066;2023-04-01T03:34:06;20.40;;;19.00;;
7985;SDS011;4038;42.612;23.066;2023-04-01T03:36:31;21.30;;;19.60;;
7985;SDS011;4038;42.612;23.066;2023-04-01T03:38:56;23.40;;;20.60;;
7985;SDS011;4038;42.612;23.066;2023-04-01T03:41:21;21.42;;;19.83;;
7985;SDS011;4038;42.612;23.066;2023-04-01T03:43:46;22.55;;;20.58;;
7985;SDS011;4038;42.612;23.066;2023-04-01T03:46:16;22.52;;;20.33;;
7985;SDS011;4038;42.612;23.066;2023-04-01T03:48:41;21.42;;;19.33;;
7985;SDS011;4038;42.612;23.066;2023-04-01T03:51:07;21.35;;;19.50;;
7985;SDS011;4038;42.612;23.066;2023-04-01T03:53:32;22.27;;;20.35;;
7985;SDS011;4038;42.612;23.066;2023-04-01T03:55:57;20.67;;;19.27;;
7985;SDS011;4038;42.612;23.066;2023-04-01T03:58:23;20.90;;;19.40;;
7985;SDS011;4038;42.612;23.066;2023-04-01T04:00:48;20.77;;;19.15;;
7985;SDS011;4038;42.612;23.066;2023-04-01T04:03:13;21.17;;;19.63;;
7985;SDS011;4038;42.612;23.066;2023-04-01T04:05:45;21.15;;;19.67;;
7985;SDS011;4038;42.612;23.066;2023-04-01T04:08:10;20.58;;;18.98;;
7985;SDS011;4038;42.612;23.066;2023-04-01T04:10:35;21.17;;;19.77;;
7985;SDS011;4038;42.612;23.066;2023-04-01T04:13:01;21.58;;;20.17;;
7985;SDS011;4038;42.612;23.066;2023-04-01T04:15:26;21.80;;;20.05;;
7985;SDS011;4038;42.612;23.066;2023-04-01T04:17:51;20.90;;;19.30;;
7985;SDS011;4038;42.612;23.066;2023-04-01T04:20:16;22.13;;;20.00;;
7985;SDS011;4038;42.612;23.066;2023-04-01T04:22:42;21.48;;;19.63;;
7985;SDS011;4038;42.612;23.066;2023-04-01T04:25:07;20.77;;;19.23;;
7985;SDS011;4038;42.612;23.066;2023-04-01T04:27:33;21.75;;;19.80;;
7985;SDS011;4038;42.612;23.066;2023-04-01T04:29:58;21.35;;;19.65;;
7985;SDS011;4038;42.612;23.066;2023-04-01T04:32:24;20.40;;;18.88;;
7985;SDS011;4038;42.612;23.066;2023-04-01T04:34:49;21.10;;;19.25;;
7985;SDS011;4038;42.612;23.066;2023-04-01T04:37:14;19.98;;;18.48;;
7985;SDS011;4038;42.612;23.066;2023-04-01T04:39:39;20.35;;;18.73;;
7985;SDS011;4038;42.612;23.066;2023-04-01T04:42:05;20.75;;;19.30;;
7985;SDS011;4038;42.612;23.066;2023-04-01T04:44:30;21.05;;;19.35;;
7985;SDS011;4038;42.612;23.066;2023-04-01T04:46:56;21.02;;;19.33;;
7985;SDS011;4038;42.612;23.066;2023-04-01T04:49:21;20.38;;;18.80;;
7985;SDS011;4038;42.612;23.066;2023-04-01T04:51:46;20.58;;;19.17;;
7985;SDS011;4038;42.612;23.066;2023-04-01T04:54:11;21.13;;;19.52;;
7985;SDS011;4038;42.612;23.066;2023-04-01T04:56:37;21.05;;;19.40;;
7985;SDS011;4038;42.612;23.066;2023-04-01T04:59:02;21.30;;;19.50;;
7985;SDS011;4038;42.612;23.066;2023-04-01T05:01:27;21.42;;;19.92;;
7985;SDS011;4038;42.612;23.066;2023-04-01T05:03:53;20.98;;;19.25;;
7985;SDS011;4038;42.612;23.066;2023-04-01T05:06:19;21.33;;;19.58;;
7985;SDS011;4038;42.612;23.066;2023-04-01T05:08:44;20.88;;;19.17;;
7985;SDS011;4038;42.612;23.066;2023-04-01T05:11:14;21.95;;;20.05;;
7985;SDS011;4038;42.612;23.066;2023-04-01T05:13:40;23.65;;;21.80;;
7985;SDS011;4038;42.612;23.066;2023-04-01T05:16:09;20.40;;;18.90;;
7985;SDS011;4038;42.612;23.066;2023-04-01T05:18:34;21.23;;;19.58;;
7985;SDS011;4038;42.612;23.066;2023-04-01T05:21:00;20.85;;;19.35;;
7985;SDS011;4038;42.612;23.066;2023-04-01T05:23:25;21.23;;;19.33;;
7985;SDS011;4038;42.612;23.066;2023-04-01T05:25:50;21.30;;;19.50;;
7985;SDS011;4038;42.612;23.066;2023-04-01T05:28:18;20.90;;;19.50;;
7985;SDS011;4038;42.612;23.066;2023-04-01T05:30:43;21.60;;;19.95;;
7985;SDS011;4038;42.612;23.066;2023-04-01T05:33:09;21.83;;;20.17;;
7985;SDS011;4038;42.612;23.066;2023-04-01T05:35:36;21.48;;;19.85;;
7985;SDS011;4038;42.612;23.066;2023-04-01T05:38:01;21.52;;;19.63;;
7985;SDS011;4038;42.612;23.066;2023-04-01T05:40:27;20.50;;;19.15;;
7985;SDS011;4038;42.612;23.066;2023-04-01T05:42:52;22.58;;;20.55;;
7985;SDS011;4038;42.612;23.066;2023-04-01T05:45:18;21.13;;;19.52;;
7985;SDS011;4038;42.612;23.066;2023-04-01T05:47:43;21.30;;;19.48;;
7985;SDS011;4038;42.612;23.066;2023-04-01T05:50:09;20.98;;;19.42;;
7985;SDS011;4038;42.612;23.066;2023-04-01T05:52:35;21.88;;;19.92;;
7985;SDS011;4038;42.612;23.066;2023-04-01T05:55:00;21.58;;;19.88;;
7985;SDS011;4038;42.612;23.066;2023-04-01T05:57:26;21.08;;;19.48;;
7985;SDS011;4038;42.612;23.066;2023-04-01T05:59:51;21.83;;;20.02;;
7985;SDS011;4038;42.612;23.066;2023-04-01T06:02:17;21.50;;;19.60;;
7985;SDS011;4038;42.612;23.066;2023-04-01T06:04:42;22.00;;;20.10;;
7985;SDS011;4038;42.612;23.066;2023-04-01T06:07:14;21.50;;;19.90;;
7985;SDS011;4038;42.612;23.066;2023-04-01T06:09:39;22.00;;;20.05;;
7985;SDS011;4038;42.612;23.066;2023-04-01T06:14:33;21.00;;;19.48;;
7985;SDS011;4038;42.612;23.066;2023-04-01T06:27:03;20.23;;;18.83;;
7985;SDS011;4038;42.612;23.066;2023-04-01T06:32:07;20.63;;;18.98;;
7985;SDS011;4038;42.612;23.066;2023-04-01T06:34:54;20.83;;;19.33;;
7985;SDS011;4038;42.612;23.066;2023-04-01T06:55:20;21.45;;;20.05;;
7985;SDS011;4038;42.612;23.066;2023-04-01T06:57:49;21.73;;;19.85;;
7985;SDS011;4038;42.612;23.066;2023-04-01T07:00:37;20.92;;;19.33;;
7985;SDS011;4038;42.612;23.066;2023-04-01T07:05:38;21.30;;;19.80;;
7985;SDS011;4038;42.612;23.066;2023-04-01T07:08:04;20.60;;;19.00;;
7985;SDS011;4038;42.612;23.066;2023-04-01T07:10:35;21.08;;;19.58;;
7985;SDS011;4038;42.612;23.066;2023-04-01T07:13:04;20.42;;;18.83;;
7985;SDS011;4038;42.612;23.066;2023-04-01T07:15:33;20.77;;;18.98;;
7985;SDS011;4038;42.612;23.066;2023-04-01T07:18:05;20.83;;;19.30;;
7985;SDS011;4038;42.612;23.066;2023-04-01T07:20:32;20.58;;;18.95;;
7985;SDS011;4038;42.612;23.066;2023-04-01T07:23:01;22.42;;;20.67;;
7985;SDS011;4038;42.612;23.066;2023-04-01T07:25:28;20.98;;;19.58;;
7985;SDS011;4038;42.612;23.066;2023-04-01T07:28:02;21.10;;;19.35;;
7985;SDS011;4038;42.612;23.066;2023-04-01T07:30:28;20.48;;;19.08;;
7985;SDS011;4038;42.612;23.066;2023-04-01T07:33:01;20.83;;;19.13;;
7985;SDS011;4038;42.612;23.066;2023-04-01T07:51:03;22.10;;;20.27;;
7985;SDS011;4038;42.612;23.066;2023-04-01T07:53:36;22.38;;;20.88;;
7985;SDS011;4038;42.612;23.066;2023-04-01T07:56:10;23.58;;;21.85;;
7985;SDS011;4038;42.612;23.066;2023-04-01T07:59:20;24.65;;;22.85;;
7985;SDS011;4038;42.612;23.066;2023-04-01T08:12:14;23.90;;;22.00;;
7985;SDS011;4038;42.612;23.066;2023-04-01T08:17:29;22.50;;;21.02;;
7985;SDS011;4038;42.612;23.066;2023-04-01T08:20:04;23.05;;;21.05;;
7985;SDS011;4038;42.612;23.066;2023-04-01T08:22:41;23.27;;;21.17;;
7985;SDS011;4038;42.612;23.066;2023-04-01T08:25:09;23.30;;;21.17;;
7985;SDS011;4038;42.612;23.066;2023-04-01T08:27:37;23.42;;;21.50;;
7985;SDS011;4038;42.612;23.066;2023-04-01T08:32:31;21.48;;;19.77;;
7985;SDS011;4038;42.612;23.066;2023-04-01T08:37:39;21.92;;;20.27;;
7985;SDS011;4038;42.612;23.066;2023-04-01T08:55:38;20.85;;;19.20;;
7985;SDS011;4038;42.612;23.066;2023-04-01T09:08:27;22.45;;;20.90;;
7985;SDS011;4038;42.612;23.066;2023-04-01T09:10:59;22.67;;;21.20;;
7985;SDS011;4038;42.612;23.066;2023-04-01T09:21:31;21.67;;;20.27;;
7985;SDS011;4038;42.612;23.066;2023-04-01T09:26:44;22.45;;;20.70;;
7985;SDS011;4038;42.612;23.066;2023-04-01T09:58:07;21.65;;;20.30;;
7985;SDS011;4038;42.612;23.066;2023-04-01T10:03:30;21.13;;;19.48;;
7985;SDS011;4038;42.612;23.066;2023-04-01T10:59:55;20.48;;;18.95;;
7985;SDS011;4038;42.612;23.066;2023-04-01T11:13:27;25.20;;;23.35;;
7985;SDS011;4038;42.612;23.066;2023-04-01T11:20:45;25.80;;;23.52;;
7985;SDS011;4038;42.612;23.066;2023-04-01T11:39:03;27.00;;;24.70;;
7985;SDS011;4038;42.612;23.066;2023-04-01T11:44:20;32.35;;;29.83;;
7985;SDS011;4038;42.612;23.066;2023-04-01T12:05:24;28.73;;;26.30;;
7985;SDS011;4038;42.612;23.066;2023-04-01T12:10:39;28.48;;;25.75;;
7985;SDS011;4038;42.612;23.066;2023-04-01T12:15:34;27.52;;;25.15;;
7985;SDS011;4038;42.612;23.066;2023-04-01T12:21:00;30.50;;;27.88;;
7985;SDS011;4038;42.612;23.066;2023-04-01T12:23:37;27.58;;;25.25;;
7985;SDS011;4038;42.612;23.066;2023-04-01T12:26:29;26.92;;;24.52;;
7985;SDS011;4038;42.612;23.066;2023-04-01T12:39:12;27.10;;;24.90;;
7985;SDS011;4038;42.612;23.066;2023-04-01T12:41:54;27.40;;;25.20;;
7985;SDS011;4038;42.612;23.066;2023-04-01T13:00:13;27.35;;;25.42;;
7985;SDS011;4038;42.612;23.066;2023-04-01T13:15:46;22.70;;;21.13;;
7985;SDS011;4038;42.612;23.066;2023-04-01T13:28:29;21.85;;;20.35;;
7985;SDS011;4038;42.612;23.066;2023-04-01T13:38:48;20.23;;;18.92;;
7985;SDS011;4038;42.612;23.066;2023-04-01T13:51:45;21.42;;;19.83;;
7985;SDS011;4038;42.612;23.066;2023-04-01T14:09:36;22.98;;;21.27;;
7985;SDS011;4038;42.612;23.066;2023-04-01T14:12:18;21.17;;;19.85;;
7985;SDS011;4038;42.612;23.066;2023-04-01T14:27:45;22.20;;;20.80;;
7985;SDS011;4038;42.612;23.066;2023-04-01T14:40:56;20.42;;;18.92;;
7985;SDS011;4038;42.612;23.066;2023-04-01T14:43:28;21.30;;;20.00;;
7985;SDS011;4038;42.612;23.066;2023-04-01T14:46:08;21.73;;;20.27;;
7985;SDS011;4038;42.612;23.066;2023-04-01T14:56:40;20.20;;;18.85;;
7985;SDS011;4038;42.612;23.066;2023-04-01T15:02:33;21.15;;;19.85;;
7985;SDS011;4038;42.612;23.066;2023-04-01T15:04:48;20.58;;;19.17;;
7985;SDS011;4038;42.612;23.066;2023-04-01T15:07:20;21.08;;;19.67;;
7985;SDS011;4038;42.612;23.066;2023-04-01T15:10:00;20.15;;;18.75;;
7985;SDS011;4038;42.612;23.066;2023-04-01T15:40:24;22.80;;;20.90;;
7985;SDS011;4038;42.612;23.066;2023-04-01T15:45:45;20.27;;;19.08;;
7985;SDS011;4038;42.612;23.066;2023-04-01T15:55:59;20.90;;;19.55;;
7985;SDS011;4038;42.612;23.066;2023-04-01T16:01:12;20.08;;;18.77;;
7985;SDS011;4038;42.612;23.066;2023-04-01T16:09:20;20.10;;;18.90;;
7985;SDS011;4038;42.612;23.066;2023-04-01T16:22:25;19.37;;;18.17;;
7985;SDS011;4038;42.612;23.066;2023-04-01T16:24:58;20.37;;;19.17;;
7985;SDS011;4038;42.612;23.066;2023-04-01T16:27:27;21.15;;;19.92;;
7985;SDS011;4038;42.612;23.066;2023-04-01T16:37:48;22.97;;;21.67;;
7985;SDS011;4038;42.612;23.066;2023-04-01T16:43:06;21.63;;;20.23;;
7985;SDS011;4038;42.612;23.066;2023-04-01T16:45:40;22.30;;;20.90;;
7985;SDS011;4038;42.612;23.066;2023-04-01T16:48:15;22.20;;;20.83;;
7985;SDS011;4038;42.612;23.066;2023-04-01T16:58:35;20.75;;;19.45;;
7985;SDS011;4038;42.612;23.066;2023-04-01T17:01:05;20.73;;;19.43;;
7985;SDS011;4038;42.612;23.066;2023-04-01T17:03:33;22.27;;;20.57;;
7985;SDS011;4038;42.612;23.066;2023-04-01T17:09:07;23.00;;;21.30;;
7985;SDS011;4038;42.612;23.066;2023-04-01T17:11:24;22.67;;;20.87;;
7985;SDS011;4038;42.612;23.066;2023-04-01T17:13:58;22.17;;;20.50;;
7985;SDS011;4038;42.612;23.066;2023-04-01T17:16:34;21.03;;;19.53;;
7985;SDS011;4038;42.612;23.066;2023-04-01T17:19:12;21.20;;;19.80;;
7985;SDS011;4038;42.612;23.066;2023-04-01T17:21:47;20.93;;;19.53;;
7985;SDS011;4038;42.612;23.066;2023-04-01T17:27:12;20.33;;;19.03;;
7985;SDS011;4038;42.612;23.066;2023-04-01T17:32:18;23.37;;;21.77;;
7985;SDS011;4038;42.612;23.066;2023-04-01T17:35:06;21.23;;;19.83;;
7985;SDS011;4038;42.612;23.066;2023-04-01T17:37:51;20.70;;;19.20;;
7985;SDS011;4038;42.612;23.066;2023-04-01T17:40:29;21.03;;;19.40;;
7985;SDS011;4038;42.612;23.066;2023-04-01T17:45:54;22.40;;;20.40;;
7985;SDS011;4038;42.612;23.066;2023-04-01T17:48:26;22.30;;;20.40;;
7985;SDS011;4038;42.612;23.066;2023-04-01T17:58:45;23.17;;;20.70;;
7985;SDS011;4038;42.612;23.066;2023-04-01T18:03:54;22.07;;;20.47;;
7985;SDS011;4038;42.612;23.066;2023-04-01T18:08:57;23.43;;;21.33;;
7985;SDS011;4038;42.612;23.066;2023-04-01T18:11:32;23.00;;;21.13;;
7985;SDS011;4038;42.612;23.066;2023-04-01T18:20:05;23.20;;;20.90;;
7985;SDS011;4038;42.612;23.066;2023-04-01T18:22:21;23.85;;;21.98;;
7985;SDS011;4038;42.612;23.066;2023-04-01T18:29:46;24.77;;;22.67;;
7985;SDS011;4038;42.612;23.066;2023-04-01T18:34:41;25.50;;;23.50;;
7985;SDS011;4038;42.612;23.066;2023-04-01T18:37:51;25.80;;;23.70;;
7985;SDS011;4038;42.612;23.066;2023-04-01T18:45:22;24.25;;;22.42;;
7985;SDS011;4038;42.612;23.066;2023-04-01T18:47:55;23.50;;;22.00;;
7985;SDS011;4038;42.612;23.066;2023-04-01T18:50:24;21.90;;;20.50;;
7985;SDS011;4038;42.612;23.066;2023-04-01T18:52:56;20.63;;;19.33;;
7985;SDS011;4038;42.612;23.066;2023-04-01T18:57:49;22.23;;;20.93;;
7985;SDS011;4038;42.612;23.066;2023-04-01T19:02:41;21.27;;;19.97;;
7985;SDS011;4038;42.612;23.066;2023-04-01T19:05:12;21.93;;;20.63;;
7985;SDS011;4038;42.612;23.066;2023-04-01T19:07:41;23.05;;;21.35;;
7985;SDS011;4038;42.612;23.066;2023-04-01T19:10:17;23.57;;;21.90;;
7985;SDS011;4038;42.612;23.066;2023-04-01T19:15:24;23.83;;;22.00;;
7985;SDS011;4038;42.612;23.066;2023-04-01T19:27:47;23.55;;;22.05;;
7985;SDS011;4038;42.612;23.066;2023-04-01T19:35:47;26.00;;;24.23;;
7985;SDS011;4038;42.612;23.066;2023-04-01T19:40:45;26.38;;;24.58;;
7985;SDS011;4038;42.612;23.066;2023-04-01T19:43:21;25.92;;;24.02;;
7985;SDS011;4038;42.612;23.066;2023-04-01T19:48:42;26.02;;;23.80;;
7985;SDS011;4038;42.612;23.066;2023-04-01T19:56:31;27.67;;;25.77;;
7985;SDS011;4038;42.612;23.066;2023-04-01T20:04:17;23.93;;;22.40;;
7985;SDS011;4038;42.612;23.066;2023-04-01T20:09:23;25.60;;;23.93;;
7985;SDS011;4038;42.612;23.066;2023-04-01T20:15:04;23.23;;;21.73;;
7985;SDS011;4038;42.612;23.066;2023-04-01T20:19:55;24.67;;;23.00;;
7985;SDS011;4038;42.612;23.066;2023-04-01T20:22:38;24.20;;;22.80;;
7985;SDS011;4038;42.612;23.066;2023-04-01T20:25:25;24.27;;;22.67;;
7985;SDS011;4038;42.612;23.066;2023-04-01T20:35:35;23.73;;;22.17;;
7985;SDS011;4038;42.612;23.066;2023-04-01T20:40:49;25.43;;;23.60;;
7985;SDS011;4038;42.612;23.066;2023-04-01T21:01:40;24.90;;;23.02;;
7985;SDS011;4038;42.612;23.066;2023-04-01T21:14:33;24.60;;;23.08;;
7985;SDS011;4038;42.612;23.066;2023-04-01T21:25:02;23.55;;;22.15;;
7985;SDS011;4038;42.612;23.066;2023-04-01T21:34:57;23.38;;;21.98;;
7985;SDS011;4038;42.612;23.066;2023-04-01T21:47:57;24.30;;;22.70;;
7985;SDS011;4038;42.612;23.066;2023-04-01T21:55:50;25.60;;;23.75;;
7985;SDS011;4038;42.612;23.066;2023-04-01T22:01:16;22.97;;;21.47;;
7985;SDS011;4038;42.612;23.066;2023-04-01T22:09:38;22.97;;;21.57;;
7985;SDS011;4038;42.612;23.066;2023-04-01T22:20:05;24.20;;;22.70;;
7985;SDS011;4038;42.612;23.066;2023-04-01T22:22:59;23.30;;;21.80;;
7985;SDS011;4038;42.612;23.066;2023-04-01T22:28:06;23.90;;;22.40;;
7985;SDS011;4038;42.612;23.066;2023-04-01T22:30:33;24.33;;;22.83;;
7985;SDS011;4038;42.612;23.066;2023-04-01T22:33:05;24.43;;;22.83;;
7985;SDS011;4038;42.612;23.066;2023-04-01T22:40:38;26.53;;;24.30;;
7985;SDS011;4038;42.612;23.066;2023-04-01T22:43:16;25.87;;;24.17;;
7985;SDS011;4038;42.612;23.066;2023-04-01T22:45:52;24.17;;;22.37;;
7985;SDS011;4038;42.612;23.066;2023-04-01T22:51:42;24.27;;;22.33;;
7985;SDS011;4038;42.612;23.066;2023-04-01T22:54:19;25.67;;;23.53;;
7985;SDS011;4038;42.612;23.066;2023-04-01T22:56:48;22.73;;;21.23;;
7985;SDS011;4038;42.612;23.066;2023-04-01T23:01:44;24.20;;;22.60;;
7985;SDS011;4038;42.612;23.066;2023-04-01T23:04:12;23.80;;;22.30;;
7985;SDS011;4038;42.612;23.066;2023-04-01T23:06:46;22.73;;;20.93;;
7985;SDS011;4038;42.612;23.066;2023-04-01T23:09:26;22.27;;;20.87;;
7985;SDS011;4038;42.612;23.066;2023-04-01T23:11:53;22.47;;;21.07;;
7985;SDS011;4038;42.612;23.066;2023-04-01T23:16:47;20.93;;;19.63;;
7985;SDS011;4038;42.612;23.066;2023-04-01T23:24:43;22.80;;;21.03;;
7985;SDS011;4038;42.612;23.066;2023-04-01T23:29:50;22.90;;;21.30;;
7985;SDS011;4038;42.612;23.066;2023-04-01T23:32:22;24.60;;;22.90;;
7985;SDS011;4038;42.612;23.066;2023-04-01T23:34:51;26.87;;;24.77;;
7985;SDS011;4038;42.612;23.066;2023-04-01T23:37:17;22.87;;;21.27;;
7985;SDS011;4038;42.612;23.066;2023-04-01T23:39:57;23.70;;;22.00;;
7985;SDS011;4038;42.612;23.066;2023-04-01T23:42:24;24.07;;;22.10;;
7985;SDS011;4038;42.612;23.066;2023-04-01T23:45:13;24.07;;;22.37;;
7985;SDS011;4038;42.612;23.066;2023-04-01T23:47:37;23.00;;;21.50;;
7985;SDS011;4038;42.612;23.066;2023-04-01T23:52:36;22.47;;;20.87;;
7985;SDS011;4038;42.612;23.066;2023-04-01T23:55:03;24.40;;;22.50;;
7985;SDS011;4038;42.612;23.066;2023-04-01T23:57:34;35.47;;;26.07;;
